sensor_id;sensor_type;location;lat;lon;timestamp;temperature;humidity
59572;DHT22;59406;45.602;11.904;2022-08-19T00:00:36;22.50;84.30
59572;DHT22;59406;45.602;11.904;2022-08-19T00:03:04;22.40;84.20
59572;DHT22;59406;45.602;11.904;2022-08-19T00:05:31;22.60;84.30
59572;DHT22;59406;45.602;11.904;2022-08-19T00:07:57;22.50;83.70
59572;DHT22;59406;45.602;11.904;2022-08-19T00:10:23;22.60;83.40
59572;DHT22;59406;45.602;11.904;2022-08-19T00:12:50;22.60;83.40
59572;DHT22;59406;45.602;11.904;2022-08-19T00:15:19;22.60;84.60
59572;DHT22;59406;45.602;11.904;2022-08-19T00:17:46;22.40;85.20
59572;DHT22;59406;45.602;11.904;2022-08-19T00:20:16;22.40;85.30
59572;DHT22;59406;45.602;11.904;2022-08-19T00:22:44;22.40;85.10
59572;DHT22;59406;45.602;11.904;2022-08-19T00:25:11;22.50;85.20
59572;DHT22;59406;45.602;11.904;2022-08-19T00:27:38;22.30;85.80
59572;DHT22;59406;45.602;11.904;2022-08-19T00:30:06;22.20;87.00
59572;DHT22;59406;45.602;11.904;2022-08-19T00:32:33;22.10;88.10
59572;DHT22;59406;45.602;11.904;2022-08-19T00:35:01;22.10;89.10
59572;DHT22;59406;45.602;11.904;2022-08-19T00:37:27;22.00;90.50
59572;DHT22;59406;45.602;11.904;2022-08-19T00:39:54;21.90;90.40
59572;DHT22;59406;45.602;11.904;2022-08-19T00:42:22;21.80;90.80
59572;DHT22;59406;45.602;11.904;2022-08-19T00:44:49;21.80;91.10
59572;DHT22;59406;45.602;11.904;2022-08-19T00:47:16;21.80;91.40
59572;DHT22;59406;45.602;11.904;2022-08-19T00:49:53;21.80;91.80
59572;DHT22;59406;45.602;11.904;2022-08-19T00:52:27;21.70;92.00
59572;DHT22;59406;45.602;11.904;2022-08-19T00:54:56;21.60;92.80
59572;DHT22;59406;45.602;11.904;2022-08-19T00:57:32;21.50;93.50
59572;DHT22;59406;45.602;11.904;2022-08-19T01:00:03;21.60;94.40
59572;DHT22;59406;45.602;11.904;2022-08-19T01:02:31;21.50;96.70
59572;DHT22;59406;45.602;11.904;2022-08-19T01:05:00;21.50;97.00
59572;DHT22;59406;45.602;11.904;2022-08-19T01:07:27;21.50;96.80
59572;DHT22;59406;45.602;11.904;2022-08-19T01:09:53;21.50;96.70
59572;DHT22;59406;45.602;11.904;2022-08-19T01:12:20;21.50;96.50
59572;DHT22;59406;45.602;11.904;2022-08-19T01:14:47;21.60;96.00
59572;DHT22;59406;45.602;11.904;2022-08-19T01:17:15;21.60;94.90
59572;DHT22;59406;45.602;11.904;2022-08-19T01:19:43;21.60;94.80
59572;DHT22;59406;45.602;11.904;2022-08-19T01:24:49;21.50;94.80
59572;DHT22;59406;45.602;11.904;2022-08-19T01:27:17;21.60;95.20
59572;DHT22;59406;45.602;11.904;2022-08-19T01:29:44;21.50;95.10
59572;DHT22;59406;45.602;11.904;2022-08-19T01:32:13;21.40;94.50
59572;DHT22;59406;45.602;11.904;2022-08-19T01:34:40;21.50;94.50
59572;DHT22;59406;45.602;11.904;2022-08-19T01:37:08;21.50;93.80
59572;DHT22;59406;45.602;11.904;2022-08-19T01:39:38;21.40;93.50
59572;DHT22;59406;45.602;11.904;2022-08-19T01:42:06;21.40;93.80
59572;DHT22;59406;45.602;11.904;2022-08-19T01:44:40;21.30;93.60
59572;DHT22;59406;45.602;11.904;2022-08-19T01:47:09;21.50;93.10
59572;DHT22;59406;45.602;11.904;2022-08-19T01:49:36;21.50;93.20
59572;DHT22;59406;45.602;11.904;2022-08-19T01:52:04;21.50;93.00
59572;DHT22;59406;45.602;11.904;2022-08-19T01:54:31;21.50;92.90
59572;DHT22;59406;45.602;11.904;2022-08-19T01:57:01;21.50;92.80
59572;DHT22;59406;45.602;11.904;2022-08-19T01:59:29;21.40;93.10
59572;DHT22;59406;45.602;11.904;2022-08-19T02:01:56;21.40;92.70
59572;DHT22;59406;45.602;11.904;2022-08-19T02:04:23;21.40;92.80
59572;DHT22;59406;45.602;11.904;2022-08-19T02:06:51;21.50;92.50
59572;DHT22;59406;45.602;11.904;2022-08-19T02:09:17;21.40;92.60
59572;DHT22;59406;45.602;11.904;2022-08-19T02:11:43;21.50;92.80
59572;DHT22;59406;45.602;11.904;2022-08-19T02:14:09;21.40;92.00
59572;DHT22;59406;45.602;11.904;2022-08-19T02:16:36;21.30;92.20
59572;DHT22;59406;45.602;11.904;2022-08-19T02:19:03;21.40;92.10
59572;DHT22;59406;45.602;11.904;2022-08-19T02:21:30;21.40;92.20
59572;DHT22;59406;45.602;11.904;2022-08-19T02:23:56;21.40;92.10
59572;DHT22;59406;45.602;11.904;2022-08-19T02:26:23;21.50;91.70
59572;DHT22;59406;45.602;11.904;2022-08-19T02:28:49;21.50;91.10
59572;DHT22;59406;45.602;11.904;2022-08-19T02:31:19;21.50;91.40
59572;DHT22;59406;45.602;11.904;2022-08-19T02:33:46;21.40;91.50
59572;DHT22;59406;45.602;11.904;2022-08-19T02:36:15;21.30;91.50
59572;DHT22;59406;45.602;11.904;2022-08-19T02:38:45;21.30;91.40
59572;DHT22;59406;45.602;11.904;2022-08-19T02:41:15;21.30;91.30
59572;DHT22;59406;45.602;11.904;2022-08-19T02:43:42;21.30;91.10
59572;DHT22;59406;45.602;11.904;2022-08-19T02:48:38;21.00;91.40
59572;DHT22;59406;45.602;11.904;2022-08-19T02:51:04;20.90;91.20
59572;DHT22;59406;45.602;11.904;2022-08-19T02:53:31;21.10;91.30
59572;DHT22;59406;45.602;11.904;2022-08-19T02:55:57;21.20;91.00
59572;DHT22;59406;45.602;11.904;2022-08-19T02:58:23;21.20;91.00
59572;DHT22;59406;45.602;11.904;2022-08-19T03:00:52;21.10;91.00
59572;DHT22;59406;45.602;11.904;2022-08-19T03:03:19;21.00;90.60
59572;DHT22;59406;45.602;11.904;2022-08-19T03:05:46;21.00;90.70
59572;DHT22;59406;45.602;11.904;2022-08-19T03:08:13;21.10;90.00
59572;DHT22;59406;45.602;11.904;2022-08-19T03:10:42;21.20;89.60
59572;DHT22;59406;45.602;11.904;2022-08-19T03:13:11;21.20;89.60
59572;DHT22;59406;45.602;11.904;2022-08-19T03:15:42;21.30;89.10
59572;DHT22;59406;45.602;11.904;2022-08-19T03:18:09;21.40;88.90
59572;DHT22;59406;45.602;11.904;2022-08-19T03:20:47;21.40;88.70
59572;DHT22;59406;45.602;11.904;2022-08-19T03:23:15;21.40;88.80
59572;DHT22;59406;45.602;11.904;2022-08-19T03:25:45;21.40;88.70
59572;DHT22;59406;45.602;11.904;2022-08-19T03:28:13;21.40;88.50
59572;DHT22;59406;45.602;11.904;2022-08-19T03:30:41;21.30;88.80
59572;DHT22;59406;45.602;11.904;2022-08-19T03:33:09;21.40;88.60
59572;DHT22;59406;45.602;11.904;2022-08-19T03:35:37;21.40;88.30
59572;DHT22;59406;45.602;11.904;2022-08-19T03:38:05;21.40;87.90
59572;DHT22;59406;45.602;11.904;2022-08-19T03:40:32;21.30;88.10
59572;DHT22;59406;45.602;11.904;2022-08-19T03:43:00;21.30;88.10
59572;DHT22;59406;45.602;11.904;2022-08-19T03:45:26;21.40;88.20
59572;DHT22;59406;45.602;11.904;2022-08-19T03:47:53;21.30;87.80
59572;DHT22;59406;45.602;11.904;2022-08-19T03:50:19;21.20;87.70
59572;DHT22;59406;45.602;11.904;2022-08-19T03:52:50;21.30;87.80
59572;DHT22;59406;45.602;11.904;2022-08-19T03:55:17;21.40;87.80
59572;DHT22;59406;45.602;11.904;2022-08-19T03:57:44;21.30;87.80
59572;DHT22;59406;45.602;11.904;2022-08-19T04:00:12;21.20;87.80
59572;DHT22;59406;45.602;11.904;2022-08-19T04:02:39;21.10;87.70
59572;DHT22;59406;45.602;11.904;2022-08-19T04:05:05;21.00;87.50
59572;DHT22;59406;45.602;11.904;2022-08-19T04:07:32;20.90;87.40
59572;DHT22;59406;45.602;11.904;2022-08-19T04:09:59;21.10;87.40
59572;DHT22;59406;45.602;11.904;2022-08-19T04:12:26;21.00;87.70
59572;DHT22;59406;45.602;11.904;2022-08-19T04:14:52;21.00;87.70
59572;DHT22;59406;45.602;11.904;2022-08-19T04:17:18;21.00;87.80
59572;DHT22;59406;45.602;11.904;2022-08-19T04:19:44;21.00;87.90
59572;DHT22;59406;45.602;11.904;2022-08-19T04:22:10;21.00;87.70
59572;DHT22;59406;45.602;11.904;2022-08-19T04:24:37;20.90;87.50
59572;DHT22;59406;45.602;11.904;2022-08-19T04:27:03;21.00;87.50
59572;DHT22;59406;45.602;11.904;2022-08-19T04:29:32;21.00;87.30
59572;DHT22;59406;45.602;11.904;2022-08-19T04:31:59;21.00;87.50
59572;DHT22;59406;45.602;11.904;2022-08-19T04:34:28;21.00;87.90
59572;DHT22;59406;45.602;11.904;2022-08-19T04:36:57;20.90;87.90
59572;DHT22;59406;45.602;11.904;2022-08-19T04:39:27;20.90;87.70
59572;DHT22;59406;45.602;11.904;2022-08-19T04:42:16;21.00;88.30
59572;DHT22;59406;45.602;11.904;2022-08-19T04:45:02;21.00;88.50
59572;DHT22;59406;45.602;11.904;2022-08-19T04:47:30;21.10;88.40
59572;DHT22;59406;45.602;11.904;2022-08-19T04:49:56;21.10;88.20
59572;DHT22;59406;45.602;11.904;2022-08-19T04:52:23;21.20;87.90
59572;DHT22;59406;45.602;11.904;2022-08-19T04:54:49;21.10;87.80
59572;DHT22;59406;45.602;11.904;2022-08-19T04:57:15;21.30;87.60
59572;DHT22;59406;45.602;11.904;2022-08-19T04:59:41;21.40;87.60
59572;DHT22;59406;45.602;11.904;2022-08-19T05:02:09;21.30;87.90
59572;DHT22;59406;45.602;11.904;2022-08-19T05:04:35;21.40;87.50
59572;DHT22;59406;45.602;11.904;2022-08-19T05:07:06;21.40;87.40
59572;DHT22;59406;45.602;11.904;2022-08-19T05:09:32;21.40;87.40
59572;DHT22;59406;45.602;11.904;2022-08-19T05:11:58;21.40;87.30
59572;DHT22;59406;45.602;11.904;2022-08-19T05:14:24;21.40;87.20
59572;DHT22;59406;45.602;11.904;2022-08-19T05:16:50;21.50;87.00
59572;DHT22;59406;45.602;11.904;2022-08-19T05:19:16;21.60;87.10
59572;DHT22;59406;45.602;11.904;2022-08-19T05:22:01;21.60;86.70
59572;DHT22;59406;45.602;11.904;2022-08-19T05:24:45;21.60;86.90
59572;DHT22;59406;45.602;11.904;2022-08-19T05:27:12;21.70;87.10
59572;DHT22;59406;45.602;11.904;2022-08-19T05:29:39;21.80;86.90
59572;DHT22;59406;45.602;11.904;2022-08-19T05:32:06;22.00;85.90
59572;DHT22;59406;45.602;11.904;2022-08-19T05:34:34;22.10;85.60
59572;DHT22;59406;45.602;11.904;2022-08-19T05:37:02;22.30;85.60
59572;DHT22;59406;45.602;11.904;2022-08-19T05:39:33;22.50;85.20
59572;DHT22;59406;45.602;11.904;2022-08-19T05:42:05;22.90;85.10
59572;DHT22;59406;45.602;11.904;2022-08-19T05:44:37;23.20;84.70
59572;DHT22;59406;45.602;11.904;2022-08-19T05:47:06;23.40;83.60
59572;DHT22;59406;45.602;11.904;2022-08-19T05:49:35;23.60;83.30
59572;DHT22;59406;45.602;11.904;2022-08-19T05:52:08;23.60;82.80
59572;DHT22;59406;45.602;11.904;2022-08-19T05:54:38;23.60;82.60
59572;DHT22;59406;45.602;11.904;2022-08-19T05:57:07;23.60;82.00
59572;DHT22;59406;45.602;11.904;2022-08-19T05:59:34;23.50;82.20
59572;DHT22;59406;45.602;11.904;2022-08-19T06:02:04;23.60;82.30
59572;DHT22;59406;45.602;11.904;2022-08-19T06:04:30;23.70;83.20
59572;DHT22;59406;45.602;11.904;2022-08-19T06:06:56;23.70;82.20
59572;DHT22;59406;45.602;11.904;2022-08-19T06:09:24;23.60;81.40
59572;DHT22;59406;45.602;11.904;2022-08-19T06:11:56;23.50;81.00
59572;DHT22;59406;45.602;11.904;2022-08-19T06:14:29;23.40;80.90
59572;DHT22;59406;45.602;11.904;2022-08-19T06:16:56;23.40;80.90
59572;DHT22;59406;45.602;11.904;2022-08-19T06:19:23;23.40;81.00
59572;DHT22;59406;45.602;11.904;2022-08-19T06:21:51;23.40;81.00
59572;DHT22;59406;45.602;11.904;2022-08-19T06:24:20;23.50;80.60
59572;DHT22;59406;45.602;11.904;2022-08-19T06:26:49;23.50;80.40
59572;DHT22;59406;45.602;11.904;2022-08-19T06:29:18;23.60;81.50
59572;DHT22;59406;45.602;11.904;2022-08-19T06:31:47;23.60;80.70
59572;DHT22;59406;45.602;11.904;2022-08-19T06:34:16;23.70;81.70
59572;DHT22;59406;45.602;11.904;2022-08-19T06:36:45;23.80;81.70
59572;DHT22;59406;45.602;11.904;2022-08-19T06:39:19;24.00;80.80
59572;DHT22;59406;45.602;11.904;2022-08-19T06:41:48;24.30;80.90
59572;DHT22;59406;45.602;11.904;2022-08-19T06:44:15;24.80;80.00
59572;DHT22;59406;45.602;11.904;2022-08-19T06:46:41;25.30;79.10
59572;DHT22;59406;45.602;11.904;2022-08-19T06:49:07;25.70;78.50
59572;DHT22;59406;45.602;11.904;2022-08-19T06:51:44;26.10;77.40
59572;DHT22;59406;45.602;11.904;2022-08-19T06:54:12;26.00;75.90
59572;DHT22;59406;45.602;11.904;2022-08-19T06:56:38;25.70;76.60
59572;DHT22;59406;45.602;11.904;2022-08-19T06:59:10;25.50;77.90
59572;DHT22;59406;45.602;11.904;2022-08-19T07:01:41;25.70;77.50
59572;DHT22;59406;45.602;11.904;2022-08-19T07:04:08;25.60;76.30
59572;DHT22;59406;45.602;11.904;2022-08-19T07:06:36;25.40;77.60
59572;DHT22;59406;45.602;11.904;2022-08-19T07:09:04;25.30;77.40
59572;DHT22;59406;45.602;11.904;2022-08-19T07:11:30;25.20;77.50
59572;DHT22;59406;45.602;11.904;2022-08-19T07:14:01;25.10;77.20
59572;DHT22;59406;45.602;11.904;2022-08-19T07:16:28;25.00;78.00
59572;DHT22;59406;45.602;11.904;2022-08-19T07:18:54;24.90;78.70
59572;DHT22;59406;45.602;11.904;2022-08-19T07:21:25;24.80;78.90
59572;DHT22;59406;45.602;11.904;2022-08-19T07:23:56;24.60;79.20
59572;DHT22;59406;45.602;11.904;2022-08-19T07:26:29;24.50;79.30
59572;DHT22;59406;45.602;11.904;2022-08-19T07:28:57;24.30;79.30
59572;DHT22;59406;45.602;11.904;2022-08-19T07:31:26;24.30;79.80
59572;DHT22;59406;45.602;11.904;2022-08-19T07:33:54;24.30;79.80
59572;DHT22;59406;45.602;11.904;2022-08-19T07:36:24;24.20;79.80
59572;DHT22;59406;45.602;11.904;2022-08-19T07:38:51;24.10;79.90
59572;DHT22;59406;45.602;11.904;2022-08-19T07:41:21;24.10;80.20
59572;DHT22;59406;45.602;11.904;2022-08-19T07:43:49;24.10;80.30
59572;DHT22;59406;45.602;11.904;2022-08-19T07:46:17;24.10;80.70
59572;DHT22;59406;45.602;11.904;2022-08-19T07:48:44;24.10;80.60
59572;DHT22;59406;45.602;11.904;2022-08-19T07:51:17;24.00;80.60
59572;DHT22;59406;45.602;11.904;2022-08-19T07:53:44;24.00;81.00
59572;DHT22;59406;45.602;11.904;2022-08-19T07:56:12;24.20;81.10
59572;DHT22;59406;45.602;11.904;2022-08-19T07:58:40;24.20;80.90
59572;DHT22;59406;45.602;11.904;2022-08-19T08:01:08;24.20;81.10
59572;DHT22;59406;45.602;11.904;2022-08-19T08:03:36;24.20;81.20
59572;DHT22;59406;45.602;11.904;2022-08-19T08:06:41;24.30;81.30
59572;DHT22;59406;45.602;11.904;2022-08-19T08:09:33;24.20;81.10
59572;DHT22;59406;45.602;11.904;2022-08-19T08:12:06;24.30;81.30
59572;DHT22;59406;45.602;11.904;2022-08-19T08:14:38;24.20;81.40
59572;DHT22;59406;45.602;11.904;2022-08-19T08:17:05;24.20;81.40
59572;DHT22;59406;45.602;11.904;2022-08-19T08:19:32;24.20;81.70
59572;DHT22;59406;45.602;11.904;2022-08-19T08:22:00;24.20;81.70
59572;DHT22;59406;45.602;11.904;2022-08-19T08:24:29;24.20;81.70
59572;DHT22;59406;45.602;11.904;2022-08-19T08:26:58;24.30;81.80
59572;DHT22;59406;45.602;11.904;2022-08-19T08:29:26;24.40;81.90
59572;DHT22;59406;45.602;11.904;2022-08-19T08:31:53;24.30;82.10
59572;DHT22;59406;45.602;11.904;2022-08-19T08:34:20;24.30;82.10
59572;DHT22;59406;45.602;11.904;2022-08-19T08:36:46;24.30;82.20
59572;DHT22;59406;45.602;11.904;2022-08-19T08:39:17;24.20;82.50
59572;DHT22;59406;45.602;11.904;2022-08-19T08:47:04;24.00;83.00
59572;DHT22;59406;45.602;11.904;2022-08-19T08:49:54;23.70;82.80
59572;DHT22;59406;45.602;11.904;2022-08-19T08:52:25;23.30;80.90
59572;DHT22;59406;45.602;11.904;2022-08-19T08:54:54;23.40;80.10
59572;DHT22;59406;45.602;11.904;2022-08-19T08:57:52;23.60;80.00
59572;DHT22;59406;45.602;11.904;2022-08-19T09:02:59;23.80;80.90
59572;DHT22;59406;45.602;11.904;2022-08-19T09:06:14;24.00;80.50
59572;DHT22;59406;45.602;11.904;2022-08-19T09:14:43;24.40;80.40
59572;DHT22;59406;45.602;11.904;2022-08-19T09:17:11;24.70;80.00
59572;DHT22;59406;45.602;11.904;2022-08-19T09:19:54;25.00;79.30
59572;DHT22;59406;45.602;11.904;2022-08-19T09:22:20;25.40;78.60
59572;DHT22;59406;45.602;11.904;2022-08-19T09:24:50;25.80;77.80
59572;DHT22;59406;45.602;11.904;2022-08-19T09:27:19;25.90;77.40
59572;DHT22;59406;45.602;11.904;2022-08-19T09:29:47;26.10;76.90
59572;DHT22;59406;45.602;11.904;2022-08-19T09:32:15;26.20;75.70
59572;DHT22;59406;45.602;11.904;2022-08-19T09:34:42;26.30;76.40
59572;DHT22;59406;45.602;11.904;2022-08-19T09:37:09;26.40;77.00
59572;DHT22;59406;45.602;11.904;2022-08-19T09:39:34;26.40;76.60
59572;DHT22;59406;45.602;11.904;2022-08-19T09:42:01;26.50;76.30
59572;DHT22;59406;45.602;11.904;2022-08-19T09:44:29;26.60;76.10
59572;DHT22;59406;45.602;11.904;2022-08-19T09:46:55;26.60;76.00
59572;DHT22;59406;45.602;11.904;2022-08-19T09:49:22;26.70;75.70
59572;DHT22;59406;45.602;11.904;2022-08-19T09:51:52;26.70;75.70
59572;DHT22;59406;45.602;11.904;2022-08-19T09:54:22;26.90;75.90
59572;DHT22;59406;45.602;11.904;2022-08-19T09:56:48;27.10;74.70
59572;DHT22;59406;45.602;11.904;2022-08-19T09:59:15;26.90;74.80
59572;DHT22;59406;45.602;11.904;2022-08-19T10:01:41;26.90;75.00
59572;DHT22;59406;45.602;11.904;2022-08-19T10:04:08;26.70;75.00
59572;DHT22;59406;45.602;11.904;2022-08-19T10:06:35;26.60;75.40
59572;DHT22;59406;45.602;11.904;2022-08-19T10:09:04;26.60;74.90
59572;DHT22;59406;45.602;11.904;2022-08-19T10:11:34;26.40;75.50
59572;DHT22;59406;45.602;11.904;2022-08-19T10:14:02;26.60;76.30
59572;DHT22;59406;45.602;11.904;2022-08-19T10:16:31;26.80;75.00
59572;DHT22;59406;45.602;11.904;2022-08-19T10:18:58;26.90;75.30
59572;DHT22;59406;45.602;11.904;2022-08-19T10:21:32;26.70;73.80
59572;DHT22;59406;45.602;11.904;2022-08-19T10:24:02;26.60;74.10
59572;DHT22;59406;45.602;11.904;2022-08-19T10:26:36;26.50;74.40
59572;DHT22;59406;45.602;11.904;2022-08-19T10:29:04;26.60;73.80
59572;DHT22;59406;45.602;11.904;2022-08-19T10:31:33;26.60;73.60
59572;DHT22;59406;45.602;11.904;2022-08-19T10:34:00;26.60;73.20
59572;DHT22;59406;45.602;11.904;2022-08-19T10:36:35;26.80;73.70
59572;DHT22;59406;45.602;11.904;2022-08-19T10:39:04;27.00;73.10
59572;DHT22;59406;45.602;11.904;2022-08-19T10:41:33;27.10;73.20
59572;DHT22;59406;45.602;11.904;2022-08-19T10:44:07;27.60;72.20
59572;DHT22;59406;45.602;11.904;2022-08-19T10:46:36;27.60;72.10
59572;DHT22;59406;45.602;11.904;2022-08-19T10:49:04;27.80;71.70
59572;DHT22;59406;45.602;11.904;2022-08-19T10:51:32;27.80;71.50
59572;DHT22;59406;45.602;11.904;2022-08-19T10:54:17;27.70;70.90
59572;DHT22;59406;45.602;11.904;2022-08-19T10:56:44;27.90;71.30
59572;DHT22;59406;45.602;11.904;2022-08-19T10:59:28;28.00;70.10
59572;DHT22;59406;45.602;11.904;2022-08-19T11:01:59;28.70;70.00
59572;DHT22;59406;45.602;11.904;2022-08-19T11:04:26;29.30;68.30
59572;DHT22;59406;45.602;11.904;2022-08-19T11:06:52;29.80;66.20
59572;DHT22;59406;45.602;11.904;2022-08-19T11:09:20;29.90;64.30
59572;DHT22;59406;45.602;11.904;2022-08-19T11:11:47;29.80;64.80
59572;DHT22;59406;45.602;11.904;2022-08-19T11:14:17;30.00;64.20
59572;DHT22;59406;45.602;11.904;2022-08-19T11:16:50;30.40;63.20
59572;DHT22;59406;45.602;11.904;2022-08-19T11:19:17;31.10;63.10
59572;DHT22;59406;45.602;11.904;2022-08-19T11:21:47;31.60;61.70
59572;DHT22;59406;45.602;11.904;2022-08-19T11:24:16;31.60;61.40
59572;DHT22;59406;45.602;11.904;2022-08-19T11:26:44;31.90;59.90
59572;DHT22;59406;45.602;11.904;2022-08-19T11:29:12;31.90;59.60
59572;DHT22;59406;45.602;11.904;2022-08-19T11:31:44;31.80;60.30
59572;DHT22;59406;45.602;11.904;2022-08-19T11:34:17;31.30;59.80
59572;DHT22;59406;45.602;11.904;2022-08-19T11:36:45;30.90;61.30
59572;DHT22;59406;45.602;11.904;2022-08-19T11:39:22;30.30;62.40
59572;DHT22;59406;45.602;11.904;2022-08-19T11:41:48;30.30;63.20
59572;DHT22;59406;45.602;11.904;2022-08-19T11:44:14;30.00;63.90
59572;DHT22;59406;45.602;11.904;2022-08-19T11:46:42;29.60;64.70
59572;DHT22;59406;45.602;11.904;2022-08-19T11:49:14;29.40;64.60
59572;DHT22;59406;45.602;11.904;2022-08-19T11:51:42;28.70;68.20
59572;DHT22;59406;45.602;11.904;2022-08-19T11:54:09;28.70;69.50
59572;DHT22;59406;45.602;11.904;2022-08-19T11:56:37;29.00;68.10
59572;DHT22;59406;45.602;11.904;2022-08-19T11:59:04;29.00;67.10
59572;DHT22;59406;45.602;11.904;2022-08-19T12:01:29;29.00;67.40
59572;DHT22;59406;45.602;11.904;2022-08-19T12:03:57;29.10;63.10
59572;DHT22;59406;45.602;11.904;2022-08-19T12:06:27;29.20;64.90
59572;DHT22;59406;45.602;11.904;2022-08-19T12:09:04;29.80;63.20
59572;DHT22;59406;45.602;11.904;2022-08-19T12:11:31;30.60;62.00
59572;DHT22;59406;45.602;11.904;2022-08-19T12:13:57;30.90;61.00
59572;DHT22;59406;45.602;11.904;2022-08-19T12:16:27;31.30;59.70
59572;DHT22;59406;45.602;11.904;2022-08-19T12:18:54;32.20;56.70
59572;DHT22;59406;45.602;11.904;2022-08-19T12:21:23;32.70;56.30
59572;DHT22;59406;45.602;11.904;2022-08-19T12:23:51;32.70;55.30
59572;DHT22;59406;45.602;11.904;2022-08-19T12:26:18;32.60;56.00
59572;DHT22;59406;45.602;11.904;2022-08-19T12:28:44;32.30;56.20
59572;DHT22;59406;45.602;11.904;2022-08-19T12:31:10;31.60;59.50
59572;DHT22;59406;45.602;11.904;2022-08-19T12:33:40;31.50;59.90
59572;DHT22;59406;45.602;11.904;2022-08-19T12:36:09;31.40;60.00
59572;DHT22;59406;45.602;11.904;2022-08-19T12:38:36;31.70;59.60
59572;DHT22;59406;45.602;11.904;2022-08-19T12:41:03;31.90;57.00
59572;DHT22;59406;45.602;11.904;2022-08-19T12:43:34;32.00;56.80
59572;DHT22;59406;45.602;11.904;2022-08-19T12:46:05;32.40;56.30
59572;DHT22;59406;45.602;11.904;2022-08-19T12:48:32;33.00;55.60
59572;DHT22;59406;45.602;11.904;2022-08-19T12:50:59;33.60;53.10
59572;DHT22;59406;45.602;11.904;2022-08-19T12:53:25;34.50;51.70
59572;DHT22;59406;45.602;11.904;2022-08-19T12:55:55;34.30;51.00
59572;DHT22;59406;45.602;11.904;2022-08-19T12:58:23;34.80;48.60
59572;DHT22;59406;45.602;11.904;2022-08-19T13:00:49;34.50;46.50
59572;DHT22;59406;45.602;11.904;2022-08-19T13:03:15;33.90;49.60
59572;DHT22;59406;45.602;11.904;2022-08-19T13:05:41;33.80;48.70
59572;DHT22;59406;45.602;11.904;2022-08-19T13:08:07;33.90;49.40
59572;DHT22;59406;45.602;11.904;2022-08-19T13:10:35;33.70;50.60
59572;DHT22;59406;45.602;11.904;2022-08-19T13:13:04;33.60;50.40
59572;DHT22;59406;45.602;11.904;2022-08-19T13:15:34;33.10;49.70
59572;DHT22;59406;45.602;11.904;2022-08-19T13:18:01;32.40;50.60
59572;DHT22;59406;45.602;11.904;2022-08-19T13:20:27;32.10;52.00
59572;DHT22;59406;45.602;11.904;2022-08-19T13:22:54;32.10;53.10
59572;DHT22;59406;45.602;11.904;2022-08-19T13:25:21;32.30;52.80
59572;DHT22;59406;45.602;11.904;2022-08-19T13:27:48;32.10;53.20
59572;DHT22;59406;45.602;11.904;2022-08-19T13:30:16;32.10;53.50
59572;DHT22;59406;45.602;11.904;2022-08-19T13:33:01;32.20;53.50
59572;DHT22;59406;45.602;11.904;2022-08-19T13:35:57;32.50;53.00
59572;DHT22;59406;45.602;11.904;2022-08-19T13:38:25;32.50;51.80
59572;DHT22;59406;45.602;11.904;2022-08-19T13:40:52;32.70;52.00
59572;DHT22;59406;45.602;11.904;2022-08-19T13:43:19;32.70;51.40
59572;DHT22;59406;45.602;11.904;2022-08-19T13:45:50;32.40;52.00
59572;DHT22;59406;45.602;11.904;2022-08-19T13:48:19;32.30;52.50
59572;DHT22;59406;45.602;11.904;2022-08-19T13:50:45;32.90;52.20
59572;DHT22;59406;45.602;11.904;2022-08-19T13:53:13;33.90;49.20
59572;DHT22;59406;45.602;11.904;2022-08-19T13:55:41;34.50;49.20
59572;DHT22;59406;45.602;11.904;2022-08-19T13:58:08;35.00;47.40
59572;DHT22;59406;45.602;11.904;2022-08-19T14:00:39;35.60;46.00
59572;DHT22;59406;45.602;11.904;2022-08-19T14:03:06;36.20;46.60
59572;DHT22;59406;45.602;11.904;2022-08-19T14:05:32;36.10;46.60
59572;DHT22;59406;45.602;11.904;2022-08-19T14:07:58;36.50;46.70
59572;DHT22;59406;45.602;11.904;2022-08-19T14:10:26;36.80;44.90
59572;DHT22;59406;45.602;11.904;2022-08-19T14:12:58;36.80;46.10
59572;DHT22;59406;45.602;11.904;2022-08-19T14:15:25;36.50;46.00
59572;DHT22;59406;45.602;11.904;2022-08-19T14:17:55;35.90;45.70
59572;DHT22;59406;45.602;11.904;2022-08-19T14:20:21;35.90;45.70
59572;DHT22;59406;45.602;11.904;2022-08-19T14:22:48;36.00;46.40
59572;DHT22;59406;45.602;11.904;2022-08-19T14:25:17;35.70;45.60
59572;DHT22;59406;45.602;11.904;2022-08-19T14:27:44;35.70;45.10
59572;DHT22;59406;45.602;11.904;2022-08-19T14:30:14;36.00;44.30
59572;DHT22;59406;45.602;11.904;2022-08-19T14:32:41;36.20;43.30
59572;DHT22;59406;45.602;11.904;2022-08-19T14:35:09;35.90;43.70
59572;DHT22;59406;45.602;11.904;2022-08-19T14:37:35;35.70;44.00
59572;DHT22;59406;45.602;11.904;2022-08-19T14:40:04;35.10;45.50
59572;DHT22;59406;45.602;11.904;2022-08-19T14:42:30;34.90;45.30
59572;DHT22;59406;45.602;11.904;2022-08-19T14:45:00;34.70;45.90
59572;DHT22;59406;45.602;11.904;2022-08-19T14:47:26;34.60;46.80
59572;DHT22;59406;45.602;11.904;2022-08-19T14:49:55;34.40;48.20
59572;DHT22;59406;45.602;11.904;2022-08-19T14:52:21;34.10;49.70
59572;DHT22;59406;45.602;11.904;2022-08-19T14:54:47;33.80;50.20
59572;DHT22;59406;45.602;11.904;2022-08-19T14:57:14;33.40;51.50
59572;DHT22;59406;45.602;11.904;2022-08-19T14:59:42;33.20;52.20
59572;DHT22;59406;45.602;11.904;2022-08-19T15:02:08;32.80;53.70
59572;DHT22;59406;45.602;11.904;2022-08-19T15:04:34;32.70;53.80
59572;DHT22;59406;45.602;11.904;2022-08-19T15:07:00;33.40;51.90
59572;DHT22;59406;45.602;11.904;2022-08-19T15:09:28;33.80;51.30
59572;DHT22;59406;45.602;11.904;2022-08-19T15:11:53;34.00;50.40
59572;DHT22;59406;45.602;11.904;2022-08-19T15:14:19;34.10;49.40
59572;DHT22;59406;45.602;11.904;2022-08-19T15:16:46;34.10;49.40
59572;DHT22;59406;45.602;11.904;2022-08-19T15:19:12;33.70;49.40
59572;DHT22;59406;45.602;11.904;2022-08-19T15:21:39;34.10;48.30
59572;DHT22;59406;45.602;11.904;2022-08-19T15:24:05;33.50;50.30
59572;DHT22;59406;45.602;11.904;2022-08-19T15:26:31;33.60;50.50
59572;DHT22;59406;45.602;11.904;2022-08-19T15:28:59;34.10;49.80
59572;DHT22;59406;45.602;11.904;2022-08-19T15:31:26;34.30;49.10
59572;DHT22;59406;45.602;11.904;2022-08-19T15:33:54;34.10;49.20
59572;DHT22;59406;45.602;11.904;2022-08-19T15:36:23;33.80;50.00
59572;DHT22;59406;45.602;11.904;2022-08-19T15:38:50;33.30;50.80
59572;DHT22;59406;45.602;11.904;2022-08-19T15:41:24;32.30;52.20
59572;DHT22;59406;45.602;11.904;2022-08-19T15:43:52;31.70;55.00